createdAt,value
2023-02-02T00:00:01.909Z,1008.1
2023-02-02T00:01:01.912Z,1008.1
2023-02-02T00:02:01.756Z,1007.9
2023-02-02T00:03:02.935Z,1008
2023-02-02T00:04:02.946Z,1008
2023-02-02T00:05:01.871Z,1008.1
2023-02-02T00:06:02.693Z,1008
2023-02-02T00:07:02.582Z,1008
2023-02-02T00:08:02.672Z,1008
2023-02-02T00:09:02.571Z,1008
2023-02-02T00:10:02.639Z,1008
2023-02-02T00:11:02.476Z,1008
2023-02-02T00:12:02.540Z,1008
2023-02-02T00:13:02.732Z,1008
2023-02-02T00:14:02.445Z,1008.1
2023-02-02T00:15:02.504Z,1008.1
2023-02-02T00:16:02.724Z,1008
2023-02-02T00:17:02.627Z,1008
2023-02-02T00:18:02.692Z,1008.1
2023-02-02T00:19:02.576Z,1008.1
2023-02-02T00:20:02.687Z,1008.2
2023-02-02T00:21:02.501Z,1008.1
2023-02-02T00:22:02.554Z,1008.1
2023-02-02T00:23:02.461Z,1008.2
2023-02-02T00:24:02.646Z,1008.1
2023-02-02T00:25:02.479Z,1008.2
2023-02-02T00:26:02.393Z,1008.1
2023-02-02T00:27:02.354Z,1008.2
2023-02-02T00:28:02.289Z,1008.2
2023-02-02T00:29:02.140Z,1008.2
2023-02-02T00:30:02.205Z,1008.2
2023-02-02T00:31:02.198Z,1008.2
2023-02-02T00:32:02.229Z,1008.3
2023-02-02T00:33:02.257Z,1008.2
2023-02-02T00:34:02.056Z,1008.3
2023-02-02T00:35:02.077Z,1008.2
2023-02-02T00:36:01.867Z,1008.3
2023-02-02T00:37:01.886Z,1008.3
2023-02-02T00:38:01.753Z,1008.2
2023-02-02T00:39:02.740Z,1008.3
2023-02-02T00:40:02.649Z,1008.3
2023-02-02T00:41:02.632Z,1008.3
2023-02-02T00:42:02.609Z,1008.3
2023-02-02T00:43:02.679Z,1008.3
2023-02-02T00:44:02.539Z,1008.3
2023-02-02T00:45:02.578Z,1008.3
2023-02-02T00:46:02.821Z,1008.4
2023-02-02T00:47:01.798Z,1008.3
2023-02-02T00:48:01.846Z,1008.3
2023-02-02T00:49:02.799Z,1008.3
2023-02-02T00:50:02.657Z,1008.3
2023-02-02T00:51:02.811Z,1008.2
2023-02-02T00:52:03.129Z,1008.3
2023-02-02T00:53:02.059Z,1008.3
2023-02-02T00:54:01.883Z,1008.2
2023-02-02T00:55:01.827Z,1008.3
2023-02-02T00:56:02.824Z,1008.3
2023-02-02T00:57:02.650Z,1008.3
2023-02-02T00:58:02.708Z,1008.2
2023-02-02T00:59:02.628Z,1008.2
2023-02-02T01:00:02.656Z,1008.3
2023-02-02T01:01:02.995Z,1008.3
2023-02-02T01:02:01.921Z,1008.3
2023-02-02T01:03:01.788Z,1008.3
2023-02-02T01:04:02.824Z,1008.3
2023-02-02T01:05:02.745Z,1008.3
2023-02-02T01:06:02.744Z,1008.3
2023-02-02T01:07:02.638Z,1008.3
2023-02-02T01:08:02.708Z,1008.3
2023-02-02T01:09:02.566Z,1008.4
2023-02-02T01:10:02.626Z,1008.3
2023-02-02T01:11:02.514Z,1008.4
2023-02-02T01:12:02.477Z,1008.4
2023-02-02T01:13:02.403Z,1008.4
2023-02-02T01:14:02.261Z,1008.3
2023-02-02T01:15:02.336Z,1008.4
2023-02-02T01:16:02.483Z,1008.3
2023-02-02T01:17:02.502Z,1008.3
2023-02-02T01:18:02.525Z,1008.3
2023-02-02T01:19:02.453Z,1008.4
2023-02-02T01:20:02.300Z,1008.4
2023-02-02T01:21:02.325Z,1008.4
2023-02-02T01:22:04.062Z,1008.4
2023-02-02T01:23:01.801Z,1008.4
2023-02-02T01:24:02.078Z,1008.4
2023-02-02T01:25:01.757Z,1008.4
2023-02-02T01:26:02.774Z,1008.4
2023-02-02T01:27:02.742Z,1008.4
2023-02-02T01:28:02.746Z,1008.4
2023-02-02T01:29:02.557Z,1008.4
2023-02-02T01:30:02.587Z,1008.4
2023-02-02T01:31:02.601Z,1008.4
2023-02-02T01:32:02.021Z,1008.4
2023-02-02T01:33:01.874Z,1008.4
2023-02-02T01:34:01.740Z,1008.4
2023-02-02T01:35:02.762Z,1008.4
2023-02-02T01:36:02.650Z,1008.4
2023-02-02T01:37:02.705Z,1008.4
2023-02-02T01:38:02.593Z,1008.5
2023-02-02T01:39:02.628Z,1008.3
2023-02-02T01:40:02.460Z,1008.5
2023-02-02T01:41:02.503Z,1008.5
2023-02-02T01:42:02.432Z,1008.4
2023-02-02T01:43:02.253Z,1008.5
2023-02-02T01:44:02.320Z,1008.5
2023-02-02T01:45:02.039Z,1008.5
2023-02-02T01:46:02.240Z,1008.4
2023-02-02T01:47:02.497Z,1008.5
2023-02-02T01:48:02.394Z,1008.5
2023-02-02T01:49:02.446Z,1008.5
2023-02-02T01:50:02.347Z,1008.5
2023-02-02T01:51:02.156Z,1008.5
2023-02-02T01:52:02.175Z,1008.5
2023-02-02T01:53:01.974Z,1008.5
2023-02-02T01:54:02.067Z,1008.5
2023-02-02T01:55:02.005Z,1008.4
2023-02-02T01:56:01.926Z,1008.5
2023-02-02T01:57:01.760Z,1008.5
2023-02-02T01:58:02.796Z,1008.5
2023-02-02T01:59:02.666Z,1008.5
2023-02-02T02:00:02.739Z,1008.5
2023-02-02T02:01:02.649Z,1008.5
2023-02-02T02:02:02.055Z,1008.6
2023-02-02T02:03:01.935Z,1008.6
2023-02-02T02:04:01.734Z,1008.6
2023-02-02T02:05:02.754Z,1008.6
2023-02-02T02:06:02.991Z,1008.6
2023-02-02T02:07:01.839Z,1008.6
2023-02-02T02:08:02.734Z,1008.6
2023-02-02T02:09:02.621Z,1008.6
2023-02-02T02:10:02.658Z,1008.7
2023-02-02T02:11:02.485Z,1008.6
2023-02-02T02:12:02.537Z,1008.7
2023-02-02T02:13:02.455Z,1008.7
2023-02-02T02:14:02.281Z,1008.7
2023-02-02T02:15:02.335Z,1008.7
2023-02-02T02:16:02.124Z,1008.8
2023-02-02T02:17:02.355Z,1008.8
2023-02-02T02:18:02.209Z,1008.8
2023-02-02T02:19:02.098Z,1008.8
2023-02-02T02:20:02.143Z,1008.8
2023-02-02T02:21:01.996Z,1008.9
2023-02-02T02:22:01.968Z,1008.8
2023-02-02T02:23:01.826Z,1008.8
2023-02-02T02:24:01.873Z,1008.8
2023-02-02T02:25:02.788Z,1008.8
2023-02-02T02:26:02.717Z,1008.8
2023-02-02T02:27:01.869Z,1008.9
2023-02-02T02:28:02.775Z,1008.9
2023-02-02T02:29:02.593Z,1008.8
2023-02-02T02:30:02.678Z,1008.9
2023-02-02T02:31:02.938Z,1008.9
2023-02-02T02:32:02.373Z,1008.9
2023-02-02T02:33:02.375Z,1008.9
2023-02-02T02:34:02.349Z,1008.9
2023-02-02T02:35:02.138Z,1008.9
2023-02-02T02:36:02.130Z,1008.9
2023-02-02T02:37:01.931Z,1009
2023-02-02T02:38:01.933Z,1009
2023-02-02T02:39:01.758Z,1009
2023-02-02T02:40:02.940Z,1009
2023-02-02T02:41:02.907Z,1009
2023-02-02T02:42:02.700Z,1008.9
2023-02-02T02:43:02.665Z,1009
2023-02-02T02:44:02.776Z,1009
2023-02-02T02:45:02.596Z,1009
2023-02-02T02:46:02.750Z,1009
2023-02-02T02:47:02.611Z,1009
2023-02-02T02:48:02.678Z,1009
2023-02-02T02:49:02.532Z,1009
2023-02-02T02:50:02.681Z,1009.1
2023-02-02T02:51:02.550Z,1009
2023-02-02T02:52:02.549Z,1009.1
2023-02-02T02:53:02.425Z,1009.1
2023-02-02T02:54:02.414Z,1009.1
2023-02-02T02:55:02.232Z,1009.1
2023-02-02T02:56:02.264Z,1009.1
2023-02-02T02:57:02.101Z,1009
2023-02-02T02:58:02.112Z,1009.1
2023-02-02T02:59:01.889Z,1009.1
2023-02-02T03:00:01.957Z,1009.1
2023-02-02T03:01:01.793Z,1009
2023-02-02T03:02:02.089Z,1009.1
2023-02-02T03:03:02.103Z,1009.1
2023-02-02T03:04:02.088Z,1009.1
2023-02-02T03:05:02.008Z,1009
2023-02-02T03:06:01.945Z,1009.1
2023-02-02T03:07:01.962Z,1009
2023-02-02T03:08:01.776Z,1009.1
2023-02-02T03:09:02.825Z,1009.1
2023-02-02T03:10:02.680Z,1009.1
2023-02-02T03:11:02.670Z,1009
2023-02-02T03:12:02.559Z,1009.1
2023-02-02T03:13:02.581Z,1009.2
2023-02-02T03:14:02.428Z,1009.1
2023-02-02T03:15:02.392Z,1009.1
2023-02-02T03:16:02.542Z,1009.1
2023-02-02T03:17:02.515Z,1009.1
2023-02-02T03:18:02.663Z,1009.1
2023-02-02T03:19:02.610Z,1009.1
2023-02-02T03:20:02.477Z,1009.1
2023-02-02T03:21:02.447Z,1009.1
2023-02-02T03:22:02.409Z,1009.1
2023-02-02T03:23:02.246Z,1009.1
2023-02-02T03:24:02.267Z,1009.1
2023-02-02T03:25:02.282Z,1009.1
2023-02-02T03:26:02.194Z,1009.1
2023-02-02T03:27:02.197Z,1009.1
2023-02-02T03:28:02.064Z,1009.2
2023-02-02T03:29:02.143Z,1009.1
2023-02-02T03:30:02.008Z,1009.1
2023-02-02T03:31:02.474Z,1009.2
2023-02-02T03:32:02.058Z,1009.1
2023-02-02T03:33:02.160Z,1009.1
2023-02-02T03:34:02.019Z,1009.1
2023-02-02T03:35:02.177Z,1009.2
2023-02-02T03:36:01.922Z,1009
2023-02-02T03:37:01.952Z,1009.1
2023-02-02T03:38:01.751Z,1009.1
2023-02-02T03:39:02.807Z,1009.2
2023-02-02T03:40:02.663Z,1009.1
2023-02-02T03:41:02.687Z,1009.2
2023-02-02T03:42:02.543Z,1009.2
2023-02-02T03:43:02.581Z,1009.1
2023-02-02T03:44:02.437Z,1009.1
2023-02-02T03:45:02.538Z,1009.2
2023-02-02T03:46:02.569Z,1009.1
2023-02-02T03:47:02.202Z,1009.1
2023-02-02T03:48:02.263Z,1009.1
2023-02-02T03:49:02.111Z,1009.2
2023-02-02T03:50:02.213Z,1009.1
2023-02-02T03:51:02.008Z,1009.1
2023-02-02T03:52:02.078Z,1009.1
2023-02-02T03:53:01.865Z,1009.1
2023-02-02T03:54:01.930Z,1009
2023-02-02T03:55:01.806Z,1009.1
2023-02-02T03:56:02.783Z,1009.2
2023-02-02T03:57:02.608Z,1009.1
2023-02-02T03:58:02.626Z,1009
2023-02-02T03:59:02.600Z,1009.1
2023-02-02T04:00:02.466Z,1009.1
2023-02-02T04:01:02.524Z,1009.1
2023-02-02T04:02:02.500Z,1009.1
2023-02-02T04:03:02.604Z,1009.1
2023-02-02T04:04:02.538Z,1009.1
2023-02-02T04:05:02.444Z,1009.1
2023-02-02T04:06:02.313Z,1009
2023-02-02T04:07:02.253Z,1009
2023-02-02T04:08:02.122Z,1009
2023-02-02T04:09:02.160Z,1009
2023-02-02T04:10:02.003Z,1009
2023-02-02T04:11:02.117Z,1008.9
2023-02-02T04:12:01.982Z,1009.1
2023-02-02T04:13:02.121Z,1009
2023-02-02T04:14:01.896Z,1008.9
2023-02-02T04:15:02.016Z,1009
2023-02-02T04:16:02.138Z,1009
2023-02-02T04:17:01.944Z,1009
2023-02-02T04:18:01.962Z,1008.9
2023-02-02T04:19:01.763Z,1008.9
2023-02-02T04:20:02.826Z,1008.9
2023-02-02T04:21:02.666Z,1009
2023-02-02T04:22:02.663Z,1009
2023-02-02T04:23:02.528Z,1009
2023-02-02T04:24:02.545Z,1008.9
2023-02-02T04:25:02.557Z,1008.9
2023-02-02T04:26:02.357Z,1008.9
2023-02-02T04:27:02.317Z,1008.9
2023-02-02T04:28:02.361Z,1008.8
2023-02-02T04:29:02.107Z,1008.8
2023-02-02T04:30:02.139Z,1008.8
2023-02-02T04:31:02.163Z,1008.9
2023-02-02T04:32:01.997Z,1008.9
2023-02-02T04:33:01.991Z,1008.8
2023-02-02T04:34:01.872Z,1008.8
2023-02-02T04:35:01.847Z,1008.8
2023-02-02T04:36:02.864Z,1008.8
2023-02-02T04:37:02.661Z,1008.8
2023-02-02T04:38:02.683Z,1008.8
2023-02-02T04:39:02.554Z,1008.8
2023-02-02T04:40:02.636Z,1008.7
2023-02-02T04:41:02.517Z,1008.8
2023-02-02T04:42:02.343Z,1008.9
2023-02-02T04:43:02.391Z,1008.8
2023-02-02T04:44:02.366Z,1008.8
2023-02-02T04:45:02.228Z,1008.8
2023-02-02T04:46:02.438Z,1008.9
2023-02-02T04:47:02.091Z,1008.8
2023-02-02T04:48:02.185Z,1008.9
2023-02-02T04:49:01.958Z,1008.9
2023-02-02T04:50:02.042Z,1008.8
2023-02-02T04:51:01.894Z,1008.8
2023-02-02T04:52:01.822Z,1008.8
2023-02-02T04:53:01.778Z,1008.8
2023-02-02T04:54:01.832Z,1008.8
2023-02-02T04:55:02.796Z,1008.8
2023-02-02T04:56:02.719Z,1008.9
2023-02-02T04:57:02.727Z,1008.9
2023-02-02T04:58:02.589Z,1008.8
2023-02-02T04:59:02.559Z,1008.8
2023-02-02T05:00:02.492Z,1008.8
2023-02-02T05:01:02.687Z,1008.8
2023-02-02T05:02:02.493Z,1008.7
2023-02-02T05:03:02.365Z,1008.8
2023-02-02T05:04:02.764Z,1008.8
2023-02-02T05:05:02.579Z,1008.9
2023-02-02T05:06:02.530Z,1008.9
2023-02-02T05:07:02.555Z,1008.8
2023-02-02T05:08:02.334Z,1008.8
2023-02-02T05:09:02.372Z,1008.9
2023-02-02T05:10:02.372Z,1008.7
2023-02-02T05:11:02.131Z,1008.8
2023-02-02T05:12:02.210Z,1008.8
2023-02-02T05:13:01.983Z,1008.9
2023-02-02T05:14:02.019Z,1008.8
2023-02-02T05:15:01.787Z,1008.8
2023-02-02T05:16:02.832Z,1008.9
2023-02-02T05:17:02.649Z,1008.7
2023-02-02T05:18:02.504Z,1008.8
2023-02-02T05:19:02.423Z,1008.9
2023-02-02T05:20:02.327Z,1008.8
2023-02-02T05:21:02.413Z,1008.8
2023-02-02T05:22:02.271Z,1008.8
2023-02-02T05:23:02.210Z,1008.7
2023-02-02T05:24:02.231Z,1008.7
2023-02-02T05:25:02.309Z,1008.7
2023-02-02T05:26:02.107Z,1008.7
2023-02-02T05:27:02.135Z,1008.8
2023-02-02T05:28:01.998Z,1008.7
2023-02-02T05:29:01.948Z,1008.6
2023-02-02T05:30:01.851Z,1008.7
2023-02-02T05:31:02.856Z,1008.7
2023-02-02T05:32:02.894Z,1008.7
2023-02-02T05:33:02.871Z,1008.7
2023-02-02T05:34:02.733Z,1008.7
2023-02-02T05:35:02.816Z,1008.7
2023-02-02T05:36:02.646Z,1008.7
2023-02-02T05:37:02.691Z,1008.7
2023-02-02T05:38:02.544Z,1008.7
2023-02-02T05:39:02.508Z,1008.7
2023-02-02T05:40:02.560Z,1008.7
2023-02-02T05:41:02.358Z,1008.7
2023-02-02T05:42:02.335Z,1008.7
2023-02-02T05:43:02.378Z,1008.7
2023-02-02T05:44:02.132Z,1008.8
2023-02-02T05:45:02.237Z,1008.7
2023-02-02T05:46:02.188Z,1008.7
2023-02-02T05:47:02.177Z,1008.7
2023-02-02T05:48:02.156Z,1008.7
2023-02-02T05:49:02.003Z,1008.6
2023-02-02T05:50:02.022Z,1008.7
2023-02-02T05:51:01.840Z,1008.7
2023-02-02T05:52:01.870Z,1008.7
2023-02-02T05:53:02.836Z,1008.7
2023-02-02T05:54:02.625Z,1008.6
2023-02-02T05:55:02.692Z,1008.6
2023-02-02T05:56:02.523Z,1008.6
2023-02-02T05:57:02.476Z,1008.6
2023-02-02T05:58:02.474Z,1008.6
2023-02-02T05:59:02.263Z,1008.6
2023-02-02T06:00:02.342Z,1008.6
2023-02-02T06:01:02.079Z,1008.6
2023-02-02T06:02:01.963Z,1008.6
2023-02-02T06:03:02.220Z,1008.5
2023-02-02T06:04:02.173Z,1008.5
2023-02-02T06:05:02.101Z,1008.5
2023-02-02T06:06:01.957Z,1008.5
2023-02-02T06:07:01.969Z,1008.5
2023-02-02T06:08:01.773Z,1008.5
2023-02-02T06:09:03.058Z,1008.4
2023-02-02T06:10:01.784Z,1008.5
2023-02-02T06:11:02.934Z,1008.5
2023-02-02T06:12:02.726Z,1008.5
2023-02-02T06:13:02.743Z,1008.5
2023-02-02T06:14:02.591Z,1008.6
2023-02-02T06:15:02.641Z,1008.5
2023-02-02T06:16:02.898Z,1008.5
2023-02-02T06:17:02.472Z,1008.6
2023-02-02T06:18:02.508Z,1008.5
2023-02-02T06:19:02.405Z,1008.6
2023-02-02T06:20:02.263Z,1008.6
2023-02-02T06:21:02.231Z,1008.6
2023-02-02T06:22:02.019Z,1008.6
2023-02-02T06:23:01.980Z,1008.5
2023-02-02T06:24:01.853Z,1008.5
2023-02-02T06:25:01.871Z,1008.6
2023-02-02T06:26:02.702Z,1008.6
2023-02-02T06:27:02.599Z,1008.6
2023-02-02T06:28:02.686Z,1008.6
2023-02-02T06:29:02.605Z,1008.7
2023-02-02T06:30:02.535Z,1008.6
2023-02-02T06:31:02.604Z,1008.7
2023-02-02T06:32:02.832Z,1008.8
2023-02-02T06:33:02.717Z,1008.7
2023-02-02T06:34:02.519Z,1008.7
2023-02-02T06:35:02.603Z,1008.7
2023-02-02T06:36:02.421Z,1008.8
2023-02-02T06:37:02.435Z,1008.8
2023-02-02T06:38:02.360Z,1008.9
2023-02-02T06:39:02.182Z,1008.8
2023-02-02T06:40:02.242Z,1008.8
2023-02-02T06:41:02.145Z,1008.9
2023-02-02T06:42:22.259Z,1008.7
2023-02-02T06:43:02.044Z,1008.8
2023-02-02T06:44:02.084Z,1008.8
2023-02-02T06:45:01.956Z,1008.7
2023-02-02T06:46:02.267Z,1008.7
2023-02-02T06:47:02.670Z,1008.8
2023-02-02T06:48:02.509Z,1008.9
2023-02-02T06:49:02.515Z,1008.7
2023-02-02T06:50:02.449Z,1008.7
2023-02-02T06:51:02.300Z,1008.6
2023-02-02T06:52:02.364Z,1008.7
2023-02-02T06:53:02.301Z,1008.7
2023-02-02T06:54:02.138Z,1008.6
2023-02-02T06:55:02.172Z,1008.7
2023-02-02T06:56:02.079Z,1008.6
2023-02-02T06:57:02.107Z,1008.6
2023-02-02T06:58:01.942Z,1008.6
2023-02-02T06:59:02.725Z,1008.6
2023-02-02T07:00:02.557Z,1008.7
2023-02-02T07:01:02.560Z,1008.6
2023-02-02T07:02:02.277Z,1008.7
2023-02-02T07:03:02.396Z,1008.6
2023-02-02T07:04:02.323Z,1008.6
2023-02-02T07:05:02.332Z,1008.7
2023-02-02T07:06:02.119Z,1008.6
2023-02-02T07:07:02.146Z,1008.5
2023-02-02T07:08:01.982Z,1008.6
2023-02-02T07:09:03.899Z,1008.6
2023-02-02T07:10:02.737Z,1008.5
2023-02-02T07:11:17.486Z,1008.6
2023-02-02T07:12:02.542Z,1008.6
2023-02-02T07:13:02.597Z,1008.7
2023-02-02T07:14:02.536Z,1008.6
2023-02-02T07:15:02.377Z,1008.7
2023-02-02T07:16:02.823Z,1008.6
2023-02-02T07:17:02.341Z,1008.6
2023-02-02T07:18:02.360Z,1008.6
2023-02-02T07:19:02.323Z,1008.7
2023-02-02T07:20:02.247Z,1008.7
2023-02-02T07:21:02.262Z,1008.6
2023-02-02T07:22:02.094Z,1008.6
2023-02-02T07:23:02.066Z,1008.6
2023-02-02T07:24:01.880Z,1008.6
2023-02-02T07:25:01.961Z,1008.6
2023-02-02T07:26:01.813Z,1008.6
2023-02-02T07:27:01.832Z,1008.7
2023-02-02T07:28:01.774Z,1008.7
2023-02-02T07:29:02.791Z,1008.7
2023-02-02T07:30:02.635Z,1008.6
2023-02-02T07:31:03.014Z,1008.7
2023-02-02T07:32:02.395Z,1008.7
2023-02-02T07:33:02.499Z,1008.8
2023-02-02T07:34:02.403Z,1008.7
2023-02-02T07:35:02.262Z,1008.7
2023-02-02T07:36:02.330Z,1008.7
2023-02-02T07:37:02.318Z,1008.7
2023-02-02T07:38:02.100Z,1008.7
2023-02-02T07:39:02.207Z,1008.9
2023-02-02T07:40:02.105Z,1008.8
2023-02-02T07:41:02.097Z,1008.6
2023-02-02T07:42:01.884Z,1008.8
2023-02-02T07:43:01.884Z,1008.8
2023-02-02T07:44:01.804Z,1008.7
2023-02-02T07:45:28.623Z,1008.8
2023-02-02T07:46:02.411Z,1008.7
2023-02-02T07:47:02.735Z,1008.8
2023-02-02T07:48:02.754Z,1008.8
2023-02-02T07:49:02.598Z,1008.8
2023-02-02T07:50:02.661Z,1008.7
2023-02-02T07:51:02.567Z,1008.7
2023-02-02T07:52:02.525Z,1008.8
2023-02-02T07:53:02.475Z,1008.7
2023-02-02T07:54:02.377Z,1008.7
2023-02-02T07:55:15.424Z,1008.7
2023-02-02T07:56:02.311Z,1008.8
2023-02-02T07:57:02.109Z,1008.7
2023-02-02T07:58:02.115Z,1008.8
2023-02-02T07:59:02.000Z,1008.8
2023-02-02T08:00:02.104Z,1008.8
2023-02-02T08:01:02.078Z,1008.8
2023-02-02T08:02:02.204Z,1008.8
2023-02-02T08:03:02.341Z,1008.9
2023-02-02T08:04:02.129Z,1008.8
2023-02-02T08:05:02.268Z,1008.7
2023-02-02T08:06:01.989Z,1008.8
2023-02-02T08:07:02.019Z,1008.8
2023-02-02T08:08:01.863Z,1008.7
2023-02-02T08:09:02.066Z,1008.7
2023-02-02T08:10:01.793Z,1008.7
2023-02-02T08:11:01.874Z,1008.8
2023-02-02T08:12:02.903Z,1008.8
2023-02-02T08:13:02.678Z,1008.7
2023-02-02T08:14:02.677Z,1008.7
2023-02-02T08:15:02.555Z,1008.7
2023-02-02T08:16:02.725Z,1008.8
2023-02-02T08:17:02.420Z,1008.8
2023-02-02T08:18:02.297Z,1008.8
2023-02-02T08:19:02.302Z,1008.9
2023-02-02T08:20:02.099Z,1008.8
2023-02-02T08:21:02.149Z,1008.9
2023-02-02T08:22:02.081Z,1008.9
2023-02-02T08:23:02.094Z,1008.9
2023-02-02T08:24:01.926Z,1008.9
2023-02-02T08:25:02.032Z,1008.9
2023-02-02T08:26:01.847Z,1008.9
2023-02-02T08:27:02.031Z,1008.9
2023-02-02T08:28:01.848Z,1008.9
2023-02-02T08:29:01.893Z,1008.9
2023-02-02T08:30:02.870Z,1008.9
2023-02-02T08:31:02.690Z,1008.9
2023-02-02T08:32:01.790Z,1009
2023-02-02T08:33:01.913Z,1009
2023-02-02T08:34:01.776Z,1008.9
2023-02-02T08:35:02.773Z,1008.9
2023-02-02T08:36:02.651Z,1009
2023-02-02T08:37:02.698Z,1009.1
2023-02-02T08:38:02.523Z,1009
2023-02-02T08:39:03.829Z,1009
2023-02-02T08:40:02.897Z,1008.9
2023-02-02T08:41:02.656Z,1009.1
2023-02-02T08:42:02.647Z,1009
2023-02-02T08:43:04.769Z,1009
2023-02-02T08:44:02.624Z,1009
2023-02-02T08:46:06.203Z,1009
2023-02-02T08:46:15.072Z,1009.1
2023-02-02T08:47:02.255Z,1009.1
2023-02-02T08:48:13.095Z,1009.2
2023-02-02T08:49:01.833Z,1009.2
2023-02-02T08:50:02.052Z,1009
2023-02-02T08:51:01.932Z,1009.2
2023-02-02T08:52:01.851Z,1009.1
2023-02-02T08:53:02.777Z,1009.1
2023-02-02T08:54:02.696Z,1009.1
2023-02-02T08:55:02.685Z,1009.1
2023-02-02T08:56:02.542Z,1009.1
2023-02-02T08:57:02.563Z,1009.2
2023-02-02T08:58:02.524Z,1009.2
2023-02-02T08:59:02.320Z,1009.2
2023-02-02T09:00:02.393Z,1009.2
2023-02-02T09:01:02.465Z,1009.2
2023-02-02T09:02:02.470Z,1009.2
2023-02-02T09:03:02.385Z,1009.2
2023-02-02T09:04:02.340Z,1009.2
2023-02-02T09:05:02.158Z,1009.2
2023-02-02T09:06:02.213Z,1009.2
2023-02-02T09:07:02.091Z,1009.1
2023-02-02T09:08:02.114Z,1009.2
2023-02-02T09:09:01.945Z,1009.2
2023-02-02T09:10:01.951Z,1009.3
2023-02-02T09:11:01.762Z,1009.3
2023-02-02T09:12:01.810Z,1009.3
2023-02-02T09:13:01.753Z,1009.2
2023-02-02T09:14:02.795Z,1009.3
2023-02-02T09:15:02.681Z,1009.3
2023-02-02T09:16:02.706Z,1009.3
2023-02-02T09:17:02.580Z,1009.4
2023-02-02T09:18:02.673Z,1009.4
2023-02-02T09:19:02.422Z,1009.4
2023-02-02T09:20:02.565Z,1009.4
2023-02-02T09:21:02.537Z,1009.5
2023-02-02T09:22:02.358Z,1009.5
2023-02-02T09:23:02.432Z,1009.5
2023-02-02T09:24:02.505Z,1009.5
2023-02-02T09:25:02.301Z,1009.4
2023-02-02T09:26:02.304Z,1009.5
2023-02-02T09:27:02.284Z,1009.5
2023-02-02T09:28:02.072Z,1009.5
2023-02-02T09:29:02.121Z,1009.5
2023-02-02T09:30:02.034Z,1009.5
2023-02-02T09:31:02.324Z,1009.6
2023-02-02T09:32:02.084Z,1009.6
2023-02-02T09:33:02.045Z,1009.6
2023-02-02T09:34:01.864Z,1009.6
2023-02-02T09:35:01.842Z,1009.7
2023-02-02T09:36:02.788Z,1009.7
2023-02-02T09:37:02.632Z,1009.7
2023-02-02T09:38:02.693Z,1009.7
2023-02-02T09:39:02.493Z,1009.7
2023-02-02T09:40:02.609Z,1009.7
2023-02-02T09:41:02.512Z,1009.7
2023-02-02T09:42:02.330Z,1009.7
2023-02-02T09:43:02.379Z,1009.8
2023-02-02T09:44:02.355Z,1009.8
2023-02-02T09:45:02.222Z,1009.8
2023-02-02T09:46:02.380Z,1009.7
2023-02-02T09:47:02.463Z,1009.8
2023-02-02T09:48:02.310Z,1009.8
2023-02-02T09:49:02.317Z,1009.7
2023-02-02T09:50:02.140Z,1009.8
2023-02-02T09:51:02.229Z,1009.8
2023-02-02T09:52:02.007Z,1009.8
2023-02-02T09:53:01.987Z,1009.8
2023-02-02T09:54:01.820Z,1009.9
2023-02-02T09:55:01.848Z,1009.8
2023-02-02T09:56:02.773Z,1009.9
2023-02-02T09:57:02.625Z,1009.9
2023-02-02T09:58:02.632Z,1009.9
2023-02-02T09:59:23.532Z,1010
2023-02-02T10:00:02.202Z,1009.9
2023-02-02T10:01:02.321Z,1010
2023-02-02T10:02:02.343Z,1010
2023-02-02T10:03:02.211Z,1010
2023-02-02T10:04:02.517Z,1010
2023-02-02T10:05:02.386Z,1010
2023-02-02T10:06:02.282Z,1009.9
2023-02-02T10:07:02.383Z,1010.1
2023-02-02T10:08:02.285Z,1009.9
2023-02-02T10:09:02.119Z,1009.9
2023-02-02T10:10:02.177Z,1010.1
2023-02-02T10:11:02.079Z,1009.9
2023-02-02T10:12:02.102Z,1010.1
2023-02-02T10:13:01.929Z,1010
2023-02-02T10:14:01.945Z,1009.9
2023-02-02T10:15:01.949Z,1009.9
2023-02-02T10:16:03.064Z,1009.9
2023-02-02T10:17:01.793Z,1009.9
2023-02-02T10:18:06.388Z,1009.9
2023-02-02T10:19:02.131Z,1010
2023-02-02T10:20:02.180Z,1010
2023-02-02T10:21:01.967Z,1010
2023-02-02T10:22:01.968Z,1009.9
2023-02-02T10:23:01.796Z,1010
2023-02-02T10:24:02.938Z,1009.9
2023-02-02T10:25:02.804Z,1010
2023-02-02T10:26:02.675Z,1010
2023-02-02T10:27:02.689Z,1010
2023-02-02T10:28:02.501Z,1010.1
2023-02-02T10:29:02.584Z,1010
2023-02-02T10:30:02.661Z,1010.1
2023-02-02T10:31:02.898Z,1010
2023-02-02T10:32:02.868Z,1010
2023-02-02T10:33:02.835Z,1010
2023-02-02T10:34:02.660Z,1010
2023-02-02T10:35:15.194Z,1010.1
2023-02-02T10:36:02.209Z,1010.1
2023-02-02T10:37:02.039Z,1010.2
2023-02-02T10:38:01.996Z,1010
2023-02-02T10:39:02.074Z,1010.1
2023-02-02T10:40:02.278Z,1010.1
2023-02-02T10:41:02.221Z,1010.1
2023-02-02T10:42:02.074Z,1010
2023-02-02T10:43:02.132Z,1010.1
2023-02-02T10:44:02.042Z,1010
2023-02-02T10:45:02.064Z,1010.1
2023-02-02T10:46:02.123Z,1010.2
2023-02-02T10:47:01.772Z,1010.2
2023-02-02T10:48:01.850Z,1010.2
2023-02-02T10:49:02.747Z,1010.2
2023-02-02T10:50:02.780Z,1010.2
2023-02-02T10:51:02.636Z,1010.2
2023-02-02T10:52:02.573Z,1010.1
2023-02-02T10:53:02.614Z,1010.2
2023-02-02T10:54:02.526Z,1010.2
2023-02-02T10:55:05.052Z,1010.1
2023-02-02T10:56:01.819Z,1010.2
2023-02-02T10:57:02.042Z,1010.2
2023-02-02T10:58:01.886Z,1010.3
2023-02-02T10:59:01.834Z,1010.4
2023-02-02T11:00:02.814Z,1010.4
2023-02-02T11:01:02.650Z,1010.3
2023-02-02T11:02:21.566Z,1010.4
2023-02-02T11:03:02.565Z,1010.3
2023-02-02T11:04:02.423Z,1010.4
2023-02-02T11:05:02.392Z,1010.5
2023-02-02T11:06:02.183Z,1010.4
2023-02-02T11:07:02.389Z,1010.5
2023-02-02T11:08:02.124Z,1010.4
2023-02-02T11:09:02.157Z,1010.4
2023-02-02T11:10:01.986Z,1010.5
2023-02-02T11:11:01.978Z,1010.5
2023-02-02T11:12:02.284Z,1010.4
2023-02-02T11:13:02.607Z,1010.4
2023-02-02T11:14:02.402Z,1010.4
2023-02-02T11:15:02.392Z,1010.5
2023-02-02T11:16:06.285Z,1010.5
2023-02-02T11:17:02.020Z,1010.6
2023-02-02T11:18:02.010Z,1010.5
2023-02-02T11:19:01.862Z,1010.6
2023-02-02T11:20:01.956Z,1010.6
2023-02-02T11:21:01.794Z,1010.6
2023-02-02T11:22:02.832Z,1010.6
2023-02-02T11:23:02.651Z,1010.6
2023-02-02T11:24:02.646Z,1010.6
2023-02-02T11:25:02.534Z,1010.6
2023-02-02T11:26:02.534Z,1010.6
2023-02-02T11:27:02.508Z,1010.6
2023-02-02T11:28:02.272Z,1010.6
2023-02-02T11:29:02.272Z,1010.7
2023-02-02T11:30:02.143Z,1010.7
2023-02-02T11:31:02.557Z,1010.6
2023-02-02T11:32:02.603Z,1010.6
2023-02-02T11:33:02.408Z,1010.7
2023-02-02T11:34:02.485Z,1010.8
2023-02-02T11:35:02.415Z,1010.7
2023-02-02T11:36:02.255Z,1010.7
2023-02-02T11:37:02.258Z,1010.7
2023-02-02T11:38:02.128Z,1010.7
2023-02-02T11:39:02.118Z,1010.8
2023-02-02T11:40:01.990Z,1010.7
2023-02-02T11:41:01.995Z,1010.7
2023-02-02T11:42:01.874Z,1010.6
2023-02-02T11:43:01.872Z,1010.7
2023-02-02T11:44:01.763Z,1010.6
2023-02-02T11:45:02.836Z,1010.7
2023-02-02T11:46:03.951Z,1010.7
2023-02-02T11:47:02.691Z,1010.7
2023-02-02T11:48:02.746Z,1010.7
2023-02-02T11:49:02.614Z,1010.7
2023-02-02T11:50:05.152Z,1010.7
2023-02-02T11:51:02.134Z,1010.7
2023-02-02T11:52:02.004Z,1010.8
2023-02-02T11:53:01.882Z,1010.7
2023-02-02T11:54:01.926Z,1010.7
2023-02-02T11:55:01.686Z,1010.8
2023-02-02T11:56:02.785Z,1010.8
2023-02-02T11:57:02.618Z,1010.8
2023-02-02T11:58:02.596Z,1010.8
2023-02-02T11:59:02.501Z,1010.8
2023-02-02T12:00:02.681Z,1010.9
2023-02-02T12:01:02.557Z,1010.8
2023-02-02T12:02:02.261Z,1010.9
2023-02-02T12:03:02.198Z,1011
2023-02-02T12:04:02.646Z,1010.9
2023-02-02T12:05:02.417Z,1011
2023-02-02T12:06:02.457Z,1011
2023-02-02T12:07:02.476Z,1011
2023-02-02T12:08:02.299Z,1011
2023-02-02T12:09:02.445Z,1011
2023-02-02T12:10:02.649Z,1011.1
2023-02-02T12:11:02.403Z,1011
2023-02-02T12:12:02.563Z,1011
2023-02-02T12:13:02.429Z,1011.1
2023-02-02T12:14:02.316Z,1011
2023-02-02T12:15:02.312Z,1011.1
2023-02-02T12:16:02.401Z,1011.1
2023-02-02T12:17:01.864Z,1011.1
2023-02-02T12:18:01.904Z,1011.1
2023-02-02T12:19:01.781Z,1011.2
2023-02-02T12:20:02.849Z,1011.2
2023-02-02T12:21:02.665Z,1011.3
2023-02-02T12:22:02.670Z,1011.2
2023-02-02T12:23:02.608Z,1011.2
2023-02-02T12:24:02.604Z,1011.2
2023-02-02T12:25:02.529Z,1011.2
2023-02-02T12:26:02.413Z,1011.3
2023-02-02T12:27:02.733Z,1011.2
2023-02-02T12:28:02.635Z,1011.2
2023-02-02T12:29:02.523Z,1011.3
2023-02-02T12:30:02.452Z,1011.3
2023-02-02T12:31:02.696Z,1011.2
2023-02-02T12:32:02.444Z,1011.3
2023-02-02T12:33:02.363Z,1011.3